Latest Weather Observations for Canterbury

IDN60801

Issued at 5:42 pm EST Sunday 15 September 2019 (issued every 10 minutes, with the page automatically refreshed every 10 minutes)

About weather observations | Map of weather stations | Latest weather observations for NSW | Other Formats
Station Details ID: 066194 Name: CANTERBURY RACECOURSE AWS Lat: -33.91 Lon: 151.11 Height: 3.0 m
Data from the previous 72 hours. | See also: Recent months at Canterbury
Date/Time
EST
Temp
°C
App
Temp
°C
Dew
Point
°C
Rel
Hum
%
Delta-T
°C
Wind Press
QNH
hPa
Press
MSL
hPa
Rain since
9am
mm
Dir  Spd
km/h
Gust
km/h
Spd
kts
Gust
kts
15/05:30pm 23.4 20.4 6.2 33 8.8 NNE 11 17 6 9 - - 0.0
15/05:00pm 24.0 20.8 6.7 33 8.9 NE 13 20 7 11 - - 0.0
15/04:30pm 24.3 20.8 7.0 33 9.0 NE 15 22 8 12 - - 0.0
15/04:00pm 25.1 21.6 7.3 32 9.4 NE 15 24 8 13 - - 0.0
15/03:30pm 25.5 20.5 3.5 24 10.8 ENE 19 26 10 14 - - 0.0
15/03:00pm 25.5 20.4 2.9 23 11.0 ENE 19 26 10 14 - - 0.0
15/02:30pm 27.1 24.0 1.5 19 12.3 N 7 19 4 10 - - 0.0
15/02:00pm 27.1 25.1 2.2 20 12.1 SE 2 6 1 3 - - 0.0
15/01:30pm 27.1 24.0 0.0 17 12.7 NNW 6 15 3 8 - - 0.0
15/01:00pm 26.2 23.0 -0.8 17 12.3 WNW 6 11 3 6 - - 0.0
15/12:30pm 25.5 21.8 0.2 19 11.7 WSW 9 17 5 9 - - 0.0
15/12:00pm 25.0 21.4 3.0 24 10.7 WNW 11 22 6 12 - - 0.0
15/11:30am 23.8 20.0 2.0 24 10.3 WNW 11 19 6 10 - - 0.0
15/11:00am 22.7 18.3 0.5 23 10.1 NNW 13 19 7 10 - - 0.0
15/10:30am 20.7 17.6 5.5 37 7.5 WNW 11 17 6 9 - - 0.0
15/10:00am 19.2 16.1 5.6 41 6.7 NW 11 17 6 9 - - 0.0
15/09:30am 17.4 14.2 6.9 50 5.2 NW 13 20 7 11 - - 0.0
15/09:00am 15.6 13.1 8.1 61 3.8 W 11 15 6 8 - - 0.0
15/08:30am 14.2 11.5 8.8 70 2.7 WNW 13 19 7 10 - - 0.0
15/08:00am 12.8 10.6 9.4 80 1.7 NW 11 19 6 10 - - 0.0
15/07:30am 11.1 8.7 8.8 86 1.1 WNW 11 19 6 10 - - 0.0
15/07:00am 9.6 7.7 9.1 97 0.2 NW 9 15 5 8 - - 0.0
15/06:30am 8.0 6.4 7.9 99 0.0 WNW 6 9 3 5 - - 0.0
15/06:00am 7.4 6.8 7.3 99 0.0 CALM 0 0 0 0 - - 0.0
15/05:30am 7.0 6.3 6.9 99 0.0 CALM 0 0 0 0 - - 0.0
15/05:00am 7.0 5.1 6.9 99 0.0 NW 6 7 3 4 - - 0.0
15/04:30am 6.5 4.5 6.4 99 0.0 NNW 6 7 3 4 - - 0.0
15/04:00am 6.8 6.0 6.7 99 0.0 CALM 0 0 0 0 - - 0.0
15/03:30am 6.8 6.0 6.5 98 0.1 CALM 0 6 0 3 - - 0.0
15/03:00am 7.3 6.7 7.2 99 0.0 CALM 0 0 0 0 - - 0.0
15/02:30am 7.1 6.4 7.0 99 0.0 CALM 0 0 0 0 - - 0.0
15/02:13am 7.4 6.7 7.1 98 0.1 CALM 0 0 0 0 - - 0.0
15/02:00am 7.4 6.7 7.1 98 0.1 CALM 0 0 0 0 - - 0.0
15/01:32am 7.1 6.3 6.5 96 0.3 CALM 0 0 0 0 - - 0.0
15/01:30am 7.7 7.0 7.1 96 0.3 CALM 0 0 0 0 - - 0.0
15/01:00am 7.5 6.8 6.8 95 0.3 CALM 0 0 0 0 - - 0.0
15/12:30am 7.9 7.2 6.8 93 0.5 CALM 0 0 0 0 - - 0.0
15/12:00am 8.4 7.8 7.5 94 0.4 CALM 0 0 0 0 - - 0.0
 
Date/Time
EST
Temp
°C
App
Temp
°C
Dew
Point
°C
Rel
Hum
%
Delta-T
°C
Wind Press
QNH
hPa
Press
MSL
hPa
Rain since
9am
mm
Dir  Spd
km/h
Gust
km/h
Spd
kts
Gust
kts
14/11:30pm 8.5 7.9 7.3 92 0.6 CALM 0 0 0 0 - - 0.0
14/11:00pm 9.0 8.5 7.8 92 0.6 CALM 0 2 0 1 - - 0.0
14/10:30pm 9.6 8.9 8.4 92 0.6 ENE 2 7 1 4 - - 0.0
14/10:00pm 9.4 8.9 7.8 90 0.8 CALM 0 0 0 0 - - 0.0
14/09:30pm 10.0 9.6 8.1 88 0.9 CALM 0 0 0 0 - - 0.0
14/09:00pm 10.5 10.1 8.1 85 1.2 CALM 0 0 0 0 - - 0.0
14/08:30pm 10.7 10.2 7.8 82 1.4 CALM 0 0 0 0 - - 0.0
14/08:00pm 11.7 11.3 8.4 80 1.6 CALM 0 0 0 0 - - 0.0
14/07:30pm 12.6 11.3 7.7 72 2.4 E 4 7 2 4 - - 0.0
14/07:00pm 14.0 12.2 8.0 67 3.0 SE 7 11 4 6 - - 0.0
14/06:30pm 14.7 12.6 8.2 65 3.3 SE 9 13 5 7 - - 0.0
14/06:00pm 15.0 11.6 7.8 62 3.6 SE 15 19 8 10 - - 0.0
14/05:30pm 15.6 11.8 7.6 59 4.0 SE 17 22 9 12 - - 0.0
14/05:00pm 16.2 12.7 8.7 61 3.8 SE 17 28 9 15 - - 0.0
14/04:30pm 16.5 12.4 8.0 57 4.3 SE 19 30 10 16 - - 0.0
14/04:00pm 17.0 12.8 8.4 57 4.4 SE 20 32 11 17 - - 0.0
14/03:30pm 17.4 13.1 8.0 54 4.8 ESE 20 32 11 17 - - 0.0
14/03:00pm 17.5 13.3 8.4 55 4.7 SE 20 28 11 15 - - 0.0
14/02:30pm 17.6 13.4 8.2 54 4.8 SE 20 32 11 17 - - 0.0
14/02:00pm 17.6 13.1 8.7 56 4.6 SE 22 32 12 17 - - 0.0
14/01:30pm 18.4 14.7 10.3 59 4.3 SE 20 32 11 17 - - 0.0
14/01:00pm 18.1 13.8 9.5 57 4.5 SE 22 33 12 18 - - 0.0
14/12:30pm 18.6 14.5 10.2 58 4.5 ESE 22 32 12 17 - - 0.0
14/12:00pm 18.5 14.7 9.8 57 4.6 SSE 20 28 11 15 - - 0.0
14/11:30am 18.5 14.3 9.6 56 4.7 SE 22 32 12 17 - - 0.0
14/11:00am 18.8 14.7 10.1 57 4.6 SE 22 32 12 17 - - 0.0
14/10:30am 18.3 14.6 9.6 57 4.6 SE 19 30 10 16 - - 0.0
14/10:00am 17.9 14.5 9.3 57 4.5 SSE 17 26 9 14 - - 0.0
14/09:30am 18.1 14.3 8.9 55 4.8 SSE 19 30 10 16 - - 0.0
14/09:00am 18.3 15.2 8.8 54 4.9 S 15 24 8 13 - - 0.0
14/08:30am 17.6 13.8 5.9 46 5.7 S 15 22 8 12 - - 0.0
14/08:00am 17.1 13.3 4.1 42 6.1 SSW 13 22 7 12 - - 0.0
14/07:30am 15.8 12.2 4.8 48 5.2 SSW 13 22 7 12 - - 0.0
14/07:22am 15.4 11.8 5.0 50 4.9 SSW 13 22 7 12 - - 0.0
14/07:00am 10.4 8.8 8.2 86 1.1 SSE 6 13 3 7 - - 0.0
14/06:30am 7.5 6.7 6.4 93 0.5 CALM 0 0 0 0 - - 0.0
14/06:00am 6.9 5.9 5.8 93 0.5 CALM 0 0 0 0 - - 0.0
14/05:30am 7.2 5.1 6.5 95 0.3 SSE 7 13 4 7 - - 0.0
14/05:00am 8.5 6.6 7.4 93 0.5 N 7 11 4 6 - - 0.0
14/04:30am 8.6 6.6 8.5 99 0.0 NNW 9 11 5 6 - - 0.0
14/04:04am 8.1 6.5 8.0 99 0.0 NW 6 7 3 4 - - 0.0
14/04:00am 8.1 6.5 8.0 99 0.0 NW 6 7 3 4 - - 0.0
14/03:52am 8.1 6.5 8.0 99 0.0 NW 6 9 3 5 - - 0.0
14/03:45am 8.2 6.4 8.1 99 0.0 WNW 7 11 4 6 - - 0.0
14/03:30am 8.0 7.5 7.9 99 0.0 CALM 0 0 0 0 - - 0.0
14/03:25am 8.4 8.0 8.3 99 0.0 CALM 0 0 0 0 - - 0.0
14/03:24am 8.3 7.9 8.2 99 0.0 CALM 0 0 0 0 - - 0.0
14/03:09am 8.5 8.1 8.4 99 0.0 CALM 0 0 0 0 - - 0.0
14/03:03am 8.3 7.9 8.2 99 0.0 CALM 0 0 0 0 - - 0.0
14/03:00am 8.5 8.1 8.4 99 0.0 CALM 0 0 0 0 - - 0.0
14/02:30am 8.0 7.5 7.9 99 0.0 CALM 0 0 0 0 - - 0.0
14/02:00am 8.1 7.6 8.0 99 0.0 CALM 0 0 0 0 - - 0.0
14/01:30am 8.4 8.0 8.1 98 0.1 CALM 0 0 0 0 - - 0.0
14/01:00am 9.0 8.6 8.4 96 0.3 CALM 0 0 0 0 - - 0.0
14/12:56am 9.1 8.8 8.5 96 0.3 CALM 0 0 0 0 - - 0.0
14/12:30am 8.8 8.3 7.9 94 0.4 CALM 0 0 0 0 - - 0.0
14/12:19am 9.1 8.6 8.0 93 0.5 CALM 0 0 0 0 - - 0.0
14/12:00am 9.8 9.5 8.6 92 0.6 CALM 0 0 0 0 - - 0.0
 
Date/Time
EST
Temp
°C
App
Temp
°C
Dew
Point
°C
Rel
Hum
%
Delta-T
°C
Wind Press
QNH
hPa
Press
MSL
hPa
Rain since
9am
mm
Dir  Spd
km/h
Gust
km/h
Spd
kts
Gust
kts
13/11:30pm 10.7 10.6 9.3 91 0.7 CALM 0 0 0 0 - - 0.0
13/11:00pm 11.5 11.3 9.2 86 1.2 CALM 0 0 0 0 - - 0.0
13/10:30pm 12.9 12.9 9.7 81 1.6 CALM 0 0 0 0 - - 0.0
13/10:00pm 14.1 13.5 10.5 79 1.9 NNW 4 9 2 5 - - 0.0
13/09:30pm 14.2 13.2 10.4 78 2.0 N 6 9 3 5 - - 0.0
13/09:00pm 13.6 13.8 10.6 82 1.6 CALM 0 0 0 0 - - 0.0
13/08:30pm 13.6 12.7 10.6 82 1.6 NNW 6 9 3 5 - - 0.0
13/08:00pm 13.9 12.7 10.3 79 1.9 N 7 9 4 5 - - 0.0
13/07:30pm 14.0 14.1 10.0 77 2.1 CALM 0 0 0 0 - - 0.0
13/07:00pm 15.3 14.0 10.1 71 2.7 ENE 7 9 4 5 - - 0.0
13/06:30pm 15.5 14.2 10.1 70 2.8 NE 7 11 4 6 - - 0.0
13/06:00pm 15.8 14.2 10.1 69 3.0 NE 9 17 5 9 - - 0.0
13/05:30pm 16.2 13.3 9.6 65 3.4 ENE 15 22 8 12 - - 0.0
13/05:00pm 16.8 14.0 10.0 64 3.6 ENE 15 24 8 13 - - 0.0
13/04:30pm 17.7 14.5 9.8 60 4.2 E 17 24 9 13 - - 0.0
13/04:00pm 18.4 15.2 10.0 58 4.5 E 17 26 9 14 - - 0.0
13/03:30pm 19.0 16.3 10.3 57 4.7 NE 15 22 8 12 - - 0.0
13/03:00pm 19.3 17.3 10.3 56 4.8 E 11 19 6 10 - - 0.0
13/02:30pm 19.7 16.5 10.1 54 5.2 E 17 24 9 13 - - 0.0
13/02:00pm 19.7 16.7 10.7 56 4.9 E 17 26 9 14 - - 0.0
13/01:30pm 19.1 16.5 10.6 58 4.6 ESE 15 22 8 12 - - 0.0
13/01:00pm 19.4 17.1 10.4 56 4.8 ESE 13 24 7 13 - - 0.0
13/12:30pm 18.7 16.4 10.3 58 4.5 ESE 13 19 7 10 - - 0.0
13/12:00pm 18.9 16.4 11.2 61 4.2 ESE 15 24 8 13 - - 0.0
13/11:30am 18.5 15.8 10.3 59 4.4 SE 15 24 8 13 - - 0.0
13/11:00am 17.6 15.2 10.0 61 4.0 SE 13 19 7 10 - - 0.0
13/10:30am 17.8 14.8 10.7 63 3.8 SE 17 28 9 15 - - 0.0
13/10:00am 17.1 13.9 11.2 68 3.2 SE 19 28 10 15 - - 0.0
13/09:30am 17.1 14.2 12.4 74 2.6 SE 19 26 10 14 - - 0.0
13/09:00am 15.5 13.8 12.3 81 1.7 SSE 13 22 7 12 - - 0.4
13/08:30am 15.8 16.3 12.7 82 1.7 WSW 2 7 1 4 - - 0.2
13/08:00am 14.3 14.7 11.3 82 1.6 CALM 0 0 0 0 - - 0.2
13/07:30am 13.8 14.0 10.4 80 1.8 CALM 0 7 0 4 - - 0.2
13/07:00am 13.9 12.7 9.5 75 2.3 N 6 7 3 4 - - 0.0
13/06:30am 14.3 13.2 10.5 78 2.0 W 7 11 4 6 - - 0.0
13/06:00am 15.3 14.6 11.9 80 1.8 SSE 7 13 4 7 - - 0.0
13/05:30am 15.5 14.5 12.3 81 1.7 SSE 9 15 5 8 - - 0.0
13/05:00am 15.7 14.3 12.1 79 2.0 SE 11 20 6 11 - - 0.0
13/04:30am 15.9 14.2 12.5 80 1.9 SE 13 20 7 11 - - 0.0
13/04:00am 16.0 14.3 12.4 79 2.0 SSE 13 19 7 10 - - 0.0
13/03:30am 16.1 14.0 12.3 78 2.1 SSE 15 26 8 14 - - 0.0
13/03:00am 16.2 12.6 8.4 60 4.0 SSE 17 30 9 16 - - 0.0
13/02:30am 11.4 9.2 6.1 70 2.5 S 7 15 4 8 - - 0.0
13/02:00am 11.0 10.2 6.6 74 2.1 CALM 0 0 0 0 - - 0.0
13/01:30am 12.2 11.2 5.8 65 3.0 CALM 0 0 0 0 - - 0.0
13/01:00am 13.4 12.3 5.3 58 3.8 CALM 0 0 0 0 - - 0.0
13/12:30am 14.8 11.8 5.9 55 4.3 SSE 11 17 6 9 - - 0.0
13/12:00am 11.6 10.7 6.1 69 2.6 CALM 0 0 0 0 - - 0.0
 
Date/Time
EST
Temp
°C
App
Temp
°C
Dew
Point
°C
Rel
Hum
%
Delta-T
°C
Wind Press
QNH
hPa
Press
MSL
hPa
Rain since
9am
mm
Dir  Spd
km/h
Gust
km/h
Spd
kts
Gust
kts
12/11:30pm 11.5 10.8 6.8 73 2.2 CALM 0 0 0 0 - - 0.0
12/11:00pm 12.3 11.5 6.6 68 2.7 CALM 0 0 0 0 - - 0.0
12/10:30pm 13.7 12.5 4.8 55 4.1 CALM 0 0 0 0 - - 0.0
12/10:00pm 14.3 13.3 5.4 55 4.2 CALM 0 0 0 0 - - 0.0
12/09:30pm 14.8 13.9 5.9 55 4.3 CALM 0 0 0 0 - - 0.0
12/09:00pm 15.7 14.2 3.2 43 5.7 CALM 0 0 0 0 - - 0.0
12/08:30pm 17.6 15.5 2.0 35 7.0 S 2 6 1 3 - - 0.0
12/08:00pm 18.8 15.0 1.8 32 7.7 E 11 13 6 7 - - 0.0
12/07:30pm 18.5 14.5 2.8 35 7.2 SE 13 17 7 9 - - 0.0
12/07:00pm 17.3 15.0 2.5 37 6.7 ESE 4 9 2 5 - - 0.0
12/06:30pm 18.7 16.7 -0.2 28 8.2 CALM 0 0 0 0 - - 0.0
12/06:00pm 20.5 17.8 -2.5 21 9.7 WNW 2 9 1 5 - - 0.0

Other formats

Comma delimited format used in spreadsheet applications
http://www.bom.gov.au/fwo/IDN60801/IDN60801.94766.axf

JavaScript Object Notation format (JSON) in row-major order
http://www.bom.gov.au/fwo/IDN60801/IDN60801.94766.json

Data quality

Most of these data are generated automatically and are frequently updated. Quality checks on data are not normally performed. It is possible for incorrect values to appear. Refer to information at About Latest Weather Observations and please check the disclaimer before using these data.